Terminal Aerodrome Forecast
Issued by NWS

Home | Current Version | Previous Version | Text Only | Print | Product List | Glossary On
Versions: 1 2 3 4 5 6 7 8 9 10 11 12 13 14
000
FTUS44 KEPZ 022322
TAFLRU
TAF
KLRU 022322Z 0300/0324 20010KT P6SM SCT090 BKN250
     FM030200 21014G22KT P6SM VCTS SCT080CB BKN250
      TEMPO 0302/0306 -TSRA BKN050CB
     FM030700 03006KT P6SM SCT080 BKN150
     FM031800 11007KT P6SM SCT080 BKN250
     FM032100 11008G15KT P6SM VCTS SCT080CB OVC250=

USA.gov is the U.S. government's official web portal to all federal, state and local government web resources and services.